Time;durP1;ratioP1;P1;durP2;ratioP2;P2;SDS_P1;SDS_P2;PMS_P1;PMS_P2;Temp;Humidity;BMP_temperature;BMP_pressure;BME280_temperature;BME280_humidity;BME280_pressure;Samples;Min_cycle;Max_cycle;Signal;HPM_P1;HPM_P2
2022/03/20 00:00:38;;;;;;;37.03;22.08;;;;;;;7.69;38.94;96410.59;4936047;29;20060;-69
2022/03/20 00:03:09;;;;;;;33.10;22.05;;;;;;;6.84;38.88;96290.53;4936516;29;20028;-68
2022/03/20 00:05:38;;;;;;;32.00;22.05;;;;;;;7.64;38.89;96416.63;4919140;29;20027;-68
2022/03/20 00:08:11;;;;;;;36.55;22.13;;;;;;;7.31;38.95;96372.69;4936176;29;20040;-68
2022/03/20 00:10:49;;;;;;;33.78;23.05;;;;;;;7.30;39.68;96371.88;4935866;29;20469;-68
2022/03/20 00:13:17;;;;;;;32.88;21.80;;;;;;;7.31;39.95;96380.63;4936285;29;20034;-68
2022/03/20 00:15:44;;;;;;;36.95;22.90;;;;;;;7.53;39.80;96409.66;4936115;29;20024;-68
2022/03/20 00:18:11;;;;;;;33.67;22.35;;;;;;;7.52;39.88;96408.06;4936248;29;20027;-69
2022/03/20 00:20:42;;;;;;;31.00;22.13;;;;;;;7.45;39.50;96405.63;4935744;29;20034;-68
2022/03/20 00:23:10;;;;;;;33.17;21.77;;;;;;;7.22;39.93;96382.94;4936063;29;20474;-69
2022/03/20 00:25:38;;;;;;;37.05;23.35;;;;;;;7.40;39.64;96413.53;4935929;29;20067;-69
2022/03/20 00:28:05;;;;;;;33.92;23.33;;;;;;;7.29;39.70;96403.91;4935914;29;20102;-69
2022/03/20 00:30:31;;;;;;;39.20;24.08;;;;;;;6.62;40.24;96290.63;4935537;29;20115;-69
2022/03/20 00:32:56;;;;;;;34.40;23.92;;;;;;;7.23;39.63;96404.91;4935940;29;20449;-69
2022/03/20 00:35:22;;;;;;;35.80;23.10;;;;;;;7.26;40.51;96399.91;4935364;29;20036;-67
2022/03/20 00:37:47;;;;;;;35.80;23.70;;;;;;;7.02;39.85;96358.97;4935713;29;20424;-68
2022/03/20 00:40:13;;;;;;;39.88;24.33;;;;;;;7.13;39.82;96384.44;4935286;29;20059;-69
2022/03/20 00:42:38;;;;;;;35.47;23.48;;;;;;;7.20;40.35;96411.50;4935772;29;20106;-68
2022/03/20 00:45:04;;;;;;;33.17;22.88;;;;;;;7.02;40.66;96377.47;4918580;29;20095;-68
2022/03/20 00:47:30;;;;;;;36.55;23.60;;;;;;;6.88;40.69;96361.19;4935787;29;20599;-68
2022/03/20 00:49:55;;;;;;;36.83;24.13;;;;;;;7.17;40.83;96408.56;4935975;29;20030;-68
2022/03/20 00:52:21;;;;;;;38.65;23.50;;;;;;;7.14;40.56;96409.06;4935750;29;20079;-68
2022/03/20 00:54:46;;;;;;;40.35;23.95;;;;;;;6.57;40.98;96327.59;4935509;29;20035;-69
2022/03/20 00:57:12;;;;;;;36.17;23.15;;;;;;;7.06;40.82;96404.22;4935489;29;20067;-69
2022/03/20 00:59:37;;;;;;;33.17;21.52;;;;;;;6.35;41.26;96301.19;4917960;29;20119;-68
2022/03/20 01:02:04;;;;;;;31.63;21.65;;;;;;;6.91;40.72;96410.16;4935155;29;20034;-68
2022/03/20 01:04:30;;;;;;;32.53;22.00;;;;;;;6.39;41.55;96334.00;4935247;29;20024;-68
2022/03/20 01:07:00;;;;;;;34.55;22.48;;;;;;;6.74;41.04;96375.88;4935173;29;20055;-69
2022/03/20 01:09:28;;;;;;;33.53;23.25;;;;;;;6.51;41.09;96342.59;4934749;29;20111;-69
2022/03/20 01:11:55;;;;;;;37.33;23.20;;;;;;;6.85;40.57;96382.84;4934967;29;20388;-69
2022/03/20 01:14:21;;;;;;;35.33;22.60;;;;;;;6.51;40.39;96332.03;4918192;29;20067;-68
2022/03/20 01:16:46;;;;;;;33.58;22.63;;;;;;;6.92;40.51;96406.47;4918105;29;20523;-69
2022/03/20 01:19:12;;;;;;;36.10;23.02;;;;;;;6.85;41.03;96405.84;4934704;29;20036;-68
2022/03/20 01:21:37;;;;;;;34.90;22.52;;;;;;;6.86;41.30;96413.56;4934712;29;20079;-68
2022/03/20 01:24:03;;;;;;;37.67;23.55;;;;;;;6.57;41.59;96368.03;4935033;29;20492;-69
2022/03/20 01:26:29;;;;;;;36.88;23.83;;;;;;;6.35;41.07;96335.56;4934796;29;20039;-68
2022/03/20 01:28:54;;;;;;;38.00;24.27;;;;;;;6.07;40.97;96289.78;4933279;29;20110;-68
2022/03/20 01:31:20;;;;;;;41.35;25.75;;;;;;;6.54;40.95;96376.44;4934669;29;20023;-68
2022/03/20 01:33:45;;;;;;;41.65;24.83;;;;;;;6.78;41.48;96412.16;4934882;29;20559;-69
2022/03/20 01:36:10;;;;;;;40.38;24.83;;;;;;;6.59;41.12;96395.00;4934742;29;20028;-68
2022/03/20 01:38:36;;;;;;;39.28;24.17;;;;;;;6.43;41.88;96374.75;4934415;29;20497;-68
2022/03/20 01:41:01;;;;;;;37.60;24.15;;;;;;;6.08;41.85;96320.44;4934541;29;20032;-69
2022/03/20 01:43:27;;;;;;;42.30;25.60;;;;;;;5.94;41.76;96313.94;4934700;29;20027;-68
2022/03/20 01:45:52;;;;;;;38.38;25.30;;;;;;;6.19;41.82;96347.75;4932774;29;20118;-69
2022/03/20 01:48:18;;;;;;;39.95;26.05;;;;;;;6.55;42.14;96408.97;4934394;29;20036;-68
2022/03/20 01:50:44;;;;;;;41.08;25.75;;;;;;;6.50;41.85;96407.88;4934137;29;20083;-67
2022/03/20 01:53:09;;;;;;;38.50;24.50;;;;;;;6.48;42.26;96409.16;4934604;29;20028;-68
2022/03/20 01:55:35;;;;;;;41.83;26.30;;;;;;;6.11;42.36;96367.50;4933303;29;20028;-69
2022/03/20 01:58:01;;;;;;;44.67;26.67;;;;;;;6.40;42.72;96413.03;4934484;29;20030;-69
2022/03/20 02:00:29;;;;;;;43.35;26.67;;;;;;;5.99;42.63;96353.63;4934218;29;20023;-69
2022/03/20 02:02:55;;;;;;;43.25;26.45;;;;;;;6.35;42.52;96415.63;4933299;29;20473;-68
2022/03/20 02:05:21;;;;;;;39.58;25.13;;;;;;;6.03;42.23;96359.97;4934303;29;20063;-70
2022/03/20 02:07:47;;;;;;;47.15;26.55;;;;;;;6.05;43.02;96373.75;4934401;29;20140;-69
2022/03/20 02:10:14;;;;;;;43.85;26.00;;;;;;;6.12;42.89;96387.56;4934246;29;20036;-68
2022/03/20 02:12:40;;;;;;;40.80;27.08;;;;;;;6.23;43.07;96410.44;4933161;29;20020;-68
2022/03/20 02:15:09;;;;;;;40.67;25.65;;;;;;;6.14;43.23;96390.78;4917418;29;20024;-68
2022/03/20 02:17:36;;;;;;;44.22;26.23;;;;;;;5.70;43.94;96342.34;4917186;29;20028;-68
2022/03/20 02:20:08;;;;;;;42.22;27.00;;;;;;;5.91;44.01;96367.19;4934171;29;20035;-68
2022/03/20 02:22:33;;;;;;;;;;;;;;;6.17;43.91;96392.94;4933294;29;20031;-66
2022/03/20 02:25:05;;;;;;;41.05;26.33;;;;;;;6.00;43.79;96373.69;4934261;29;19918;-68
2022/03/20 02:27:32;;;;;;;41.13;25.98;;;;;;;5.46;43.52;96286.34;4933901;29;20035;-69
2022/03/20 02:30:04;;;;;;;41.10;26.25;;;;;;;5.88;44.48;96365.03;4916648;29;20485;-68
2022/03/20 02:32:31;;;;;;;41.53;25.83;;;;;;;5.81;44.67;96367.06;4932770;29;20706;-68
2022/03/20 02:35:02;;;;;;;41.72;25.77;;;;;;;5.84;44.68;96374.50;4934071;29;20385;-68
2022/03/20 02:37:28;;;;;;;37.80;24.67;;;;;;;5.57;44.29;96303.91;4934205;29;20078;-68
2022/03/20 02:39:57;;;;;;;37.20;24.10;;;;;;;6.04;44.06;96381.91;4933846;29;20406;-68
2022/03/20 02:42:23;;;;;;;37.40;24.63;;;;;;;5.98;44.40;96375.75;4934085;29;20027;-68
2022/03/20 02:45:00;;;;;;;40.58;25.95;;;;;;;5.20;44.03;96241.13;4933975;29;20023;-68
2022/03/20 02:47:29;;;;;;;36.95;23.80;;;;;;;5.90;44.07;96352.41;4932710;29;20032;-68
2022/03/20 02:50:03;;;;;;;42.25;27.08;;;;;;;6.05;43.59;96375.59;4933850;29;20032;-68
2022/03/20 02:52:51;;;;;;;39.58;25.48;;;;;;;5.92;43.66;96366.19;4933913;29;20063;-68
2022/03/20 02:55:22;;;;;;;39.58;25.77;;;;;;;5.76;43.94;96359.88;4932672;29;20475;-68
2022/03/20 02:57:50;;;;;;;39.80;25.50;;;;;;;5.75;45.02;96411.06;4935303;29;20035;-68
2022/03/20 03:00:21;;;;;;;39.78;25.15;;;;;;;5.77;45.13;96416.09;4935876;29;20286;-67
2022/03/20 03:02:47;;;;;;;39.97;24.33;;;;;;;5.73;44.28;96384.09;4938047;29;20032;-68
2022/03/20 03:05:15;;;;;;;38.50;25.30;;;;;;;5.92;44.37;96411.06;4938538;29;20080;-67
2022/03/20 03:13:13;;;;;;;40.78;25.88;;;;;;;5.85;44.80;96405.16;4937592;29;20051;-67
2022/03/20 03:15:38;;;;;;;37.30;24.88;;;;;;;4.84;46.58;96384.00;4920051;29;20036;-67
2022/03/20 03:18:04;;;;;;;40.58;25.63;;;;;;;4.90;47.13;96396.22;4920104;29;20031;-68
2022/03/20 03:20:30;;;;;;;40.92;25.25;;;;;;;5.54;45.83;96425.81;4919718;29;20042;-67
2022/03/20 03:22:55;;;;;;;42.00;25.35;;;;;;;5.40;45.19;96384.94;4937188;29;20059;-67
2022/03/20 03:25:22;;;;;;;40.10;25.38;;;;;;;5.40;44.85;96387.56;4937041;29;20446;-67
2022/03/20 03:27:48;;;;;;;42.35;25.83;;;;;;;5.54;44.88;96403.91;4937117;29;20389;-68
2022/03/20 03:30:15;;;;;;;44.50;26.63;;;;;;;5.66;44.80;96423.06;4936644;29;20035;-67
2022/03/20 03:32:41;;;;;;;42.92;24.55;;;;;;;5.65;44.60;96427.56;4937538;29;20028;-67
2022/03/20 03:37:55;;;;;;;41.88;25.52;;;;;;;5.46;44.74;96408.50;4937398;29;20551;-67
2022/03/20 03:40:21;;;;;;;52.80;27.15;;;;;;;5.68;45.17;96448.22;4919640;29;20032;-67
2022/03/20 03:42:47;;;;;;;41.30;26.90;;;;;;;5.65;44.49;96438.13;4936736;29;20036;-68
2022/03/20 03:45:12;;;;;;;46.03;26.27;;;;;;;5.60;45.13;96434.59;4937020;29;20393;-67
2022/03/20 03:47:38;;;;;;;42.38;26.92;;;;;;;5.42;45.17;96407.38;4935536;29;20036;-67
2022/03/20 03:50:04;;;;;;;43.17;27.05;;;;;;;5.29;44.94;96394.53;4935217;29;20031;-67
2022/03/20 03:52:30;;;;;;;38.13;25.73;;;;;;;5.21;45.18;96381.72;4919470;29;20034;-67
2022/03/20 03:54:55;;;;;;;39.78;25.73;;;;;;;5.57;45.20;96440.34;4919536;29;20397;-67
2022/03/20 03:57:21;;;;;;;38.38;25.52;;;;;;;5.51;45.01;96431.56;4936495;29;20063;-67
2022/03/20 03:59:47;;;;;;;35.90;24.40;;;;;;;5.46;45.23;96423.56;4918400;29;20028;-68
2022/03/20 04:02:14;;;;;;;41.85;26.73;;;;;;;5.16;45.09;96379.78;4935294;29;20036;-67
2022/03/20 04:04:41;;;;;;;39.45;25.90;;;;;;;5.28;44.97;96400.06;4935167;29;20119;-67
2022/03/20 04:07:07;;;;;;;45.47;27.13;;;;;;;5.33;45.25;96413.31;4936366;29;20477;-67
2022/03/20 04:09:32;;;;;;;45.15;26.25;;;;;;;5.33;45.27;96406.22;4935241;29;20511;-70
2022/03/20 04:11:58;;;;;;;43.45;26.15;;;;;;;5.46;45.01;96440.19;4919161;29;20023;-66
2022/03/20 04:14:24;;;;;;;34.47;24.65;;;;;;;5.43;45.47;96426.69;4936215;29;20106;-67
2022/03/20 04:16:50;;;;;;;38.97;25.05;;;;;;;5.27;45.71;96420.34;4936327;29;20071;-67
2022/03/20 04:19:16;;;;;;;39.83;24.23;;;;;;;5.43;45.46;96442.53;4918736;29;20035;-67
2022/03/20 04:21:41;;;;;;;35.97;23.92;;;;;;;5.37;45.43;96428.41;4935863;29;20477;-69
2022/03/20 04:24:07;;;;;;;36.42;23.65;;;;;;;5.21;45.92;96431.84;4919021;29;20035;-69
2022/03/20 04:26:34;;;;;;;39.80;26.02;;;;;;;5.16;45.70;96408.81;4935879;29;20035;-69
2022/03/20 04:29:00;;;;;;;36.85;24.50;;;;;;;5.21;45.88;96422.09;4934432;29;20517;-68
2022/03/20 04:31:26;;;;;;;38.55;24.98;;;;;;;5.29;45.18;96413.00;4935830;29;20087;-68
2022/03/20 04:33:54;;;;;;;35.80;24.48;;;;;;;5.26;45.11;96439.84;4935874;29;20031;-68
2022/03/20 04:36:23;;;;;;;39.13;24.75;;;;;;;5.04;45.38;96407.28;4935931;29;20087;-67
2022/03/20 04:38:50;;;;;;;43.45;25.27;;;;;;;5.46;45.04;96460.50;4935686;29;20079;-68
2022/03/20 04:41:17;;;;;;;39.25;24.52;;;;;;;5.39;45.54;96457.22;4935619;29;20027;-68
2022/03/20 04:43:44;;;;;;;42.80;24.77;;;;;;;5.35;45.44;96450.81;4935657;29;20027;-69
2022/03/20 04:46:09;;;;;;;40.42;25.33;;;;;;;5.41;45.17;96470.97;4935651;29;20035;-68
2022/03/20 04:59:30;;;;;;;38.92;25.20;;;;;;;5.07;45.67;96426.09;4935407;29;20178;-66
2022/03/20 05:01:55;;;;;;;40.03;25.73;;;;;;;5.25;45.75;96462.00;4935192;29;20056;-66
2022/03/20 05:04:21;;;;;;;40.33;24.23;;;;;;;5.09;45.86;96445.09;4935222;29;20039;-69
2022/03/20 05:06:46;;;;;;;35.97;24.00;;;;;;;5.15;45.95;96457.34;4935320;29;20388;-68
2022/03/20 05:14:40;;;;;;;38.13;24.15;;;;;;;5.16;45.64;96480.03;4935705;29;20110;-68
2022/03/20 05:17:07;;;;;;;41.58;24.45;;;;;;;4.83;46.22;96424.59;4935367;29;20074;-68
2022/03/20 05:19:37;;;;;;;37.83;24.92;;;;;;;5.14;45.70;96487.38;4935051;29;20032;-68
2022/03/20 05:22:04;;;;;;;38.40;24.75;;;;;;;4.86;45.86;96437.28;4933056;29;20034;-68
2022/03/20 05:24:29;;;;;;;41.28;26.40;;;;;;;5.24;45.77;96493.91;4934492;29;20023;-68
2022/03/20 05:26:55;;;;;;;40.38;25.40;;;;;;;5.07;46.01;96460.38;4935421;29;20027;-68
2022/03/20 05:29:20;;;;;;;37.80;24.02;;;;;;;5.35;46.09;96514.94;4934763;29;20429;-68
2022/03/20 05:31:46;;;;;;;44.95;25.60;;;;;;;4.97;46.10;96456.75;4917504;29;20029;-67
2022/03/20 05:34:12;;;;;;;38.33;25.52;;;;;;;5.14;46.07;96468.94;4934761;29;20027;-67
2022/03/20 05:36:38;;;;;;;41.20;25.50;;;;;;;5.26;46.17;96466.22;4934871;29;20031;-67
2022/03/20 05:39:04;;;;;;;42.53;25.50;;;;;;;5.42;45.71;96489.19;4933249;29;20072;-68
2022/03/20 05:41:48;;;;;;;40.50;25.38;;;;;;;5.31;45.75;96454.97;4934613;29;20031;-68
2022/03/20 05:44:26;;;;;;;40.88;25.42;;;;;;;5.63;45.43;96508.84;4917572;29;20027;-67
2022/03/20 05:46:53;;;;;;;39.70;24.95;;;;;;;5.67;45.45;96503.84;4934684;29;20031;-68
2022/03/20 05:49:20;;;;;;;36.25;24.52;;;;;;;5.63;45.61;96508.00;4917238;29;20234;-68
2022/03/20 05:51:46;;;;;;;41.20;25.95;;;;;;;5.50;45.38;96487.22;4934544;29;20081;-68
2022/03/20 05:54:13;;;;;;;39.95;25.52;;;;;;;5.81;45.28;96528.13;4934578;29;20091;-68
2022/03/20 05:59:23;;;;;;;39.45;24.83;;;;;;;5.77;45.31;96497.94;4934376;29;20151;-67
2022/03/20 06:01:50;;;;;;;39.75;24.08;;;;;;;5.72;45.22;96494.19;4933169;29;20585;-68
2022/03/20 06:04:16;;;;;;;37.15;24.48;;;;;;;5.85;45.08;96500.19;4917323;29;20039;-67
2022/03/20 06:06:43;;;;;;;35.50;24.70;;;;;;;5.90;44.50;96490.50;4934371;29;20059;-68
2022/03/20 06:09:08;;;;;;;40.90;24.90;;;;;;;6.24;44.72;96522.19;4916929;29;20090;-67
2022/03/20 06:11:34;;;;;;;37.25;24.00;;;;;;;6.21;44.28;96509.50;4933023;29;20020;-67
2022/03/20 06:14:06;;;;;;;35.17;22.48;;;;;;;6.30;43.76;96523.09;4934357;29;20465;-66
2022/03/20 06:16:32;;;;;;;35.25;23.77;;;;;;;6.28;43.92;96501.38;4934318;29;20023;-69
2022/03/20 06:18:58;;;;;;;33.03;22.48;;;;;;;6.36;43.69;96517.63;4932793;29;20043;-69
2022/03/20 06:21:24;;;;;;;32.70;22.92;;;;;;;6.58;43.35;96543.31;4932659;29;20042;-69
2022/03/20 06:23:50;;;;;;;39.63;22.85;;;;;;;6.66;43.90;96533.13;4934303;29;20019;-69
2022/03/20 06:26:18;;;;;;;35.47;23.27;;;;;;;6.80;43.08;96540.69;4932915;29;20031;-68
2022/03/20 06:28:44;;;;;;;35.80;23.35;;;;;;;6.61;42.86;96505.81;4933743;29;20528;-68
2022/03/20 06:31:13;;;;;;;32.05;22.10;;;;;;;6.54;42.95;96486.69;4917038;29;20020;-69
2022/03/20 06:33:39;;;;;;;32.75;22.40;;;;;;;6.93;42.46;96527.91;4935584;29;20024;-69
2022/03/20 06:36:06;;;;;;;29.25;22.27;;;;;;;6.49;42.67;96484.75;4936773;29;20035;-69
2022/03/20 06:38:33;;;;;;;39.35;24.00;;;;;;;6.85;42.43;96517.72;4937591;29;20027;-67
2022/03/20 06:40:59;;;;;;;33.95;21.80;;;;;;;7.21;42.35;96544.59;4937649;29;20067;-68
2022/03/20 06:43:25;;;;;;;34.60;22.25;;;;;;;6.63;42.34;96438.41;4937696;29;20027;-68
2022/03/20 06:45:52;;;;;;;31.95;22.33;;;;;;;7.40;41.68;96553.03;4937754;29;20039;-69
2022/03/20 06:48:18;;;;;;;32.08;22.30;;;;;;;7.49;41.07;96546.25;4936558;29;20059;-68
2022/03/20 06:50:44;;;;;;;33.95;22.98;;;;;;;7.17;41.07;96501.97;4920246;29;20062;-68
2022/03/20 06:53:11;;;;;;;31.50;22.58;;;;;;;7.54;40.76;96554.25;4937691;29;20160;-69
2022/03/20 06:55:37;;;;;;;32.05;23.08;;;;;;;7.56;40.93;96546.84;4937665;29;20509;-69
2022/03/20 06:58:02;;;;;;;33.65;22.40;;;;;;;7.52;40.34;96519.25;4936401;29;20110;-68
2022/03/20 07:00:30;;;;;;;33.00;23.40;;;;;;;7.31;40.35;96481.19;4937172;29;20031;-69
2022/03/20 07:02:58;;;;;;;34.95;24.20;;;;;;;7.80;40.25;96557.94;4937458;29;20034;-69
2022/03/20 07:05:24;;;;;;;32.25;22.45;;;;;;;7.07;39.93;96438.38;4920257;29;20031;-68
2022/03/20 07:07:50;;;;;;;32.33;22.83;;;;;;;7.79;40.19;96525.34;4936013;29;20028;-69
2022/03/20 07:10:22;;;;;;;34.20;23.27;;;;;;;8.10;39.97;96570.66;4937109;29;20476;-69
2022/03/20 07:12:47;;;;;;;36.60;24.17;;;;;;;7.86;39.54;96503.16;4920321;29;20068;-68
2022/03/20 07:15:12;;;;;;;33.85;24.13;;;;;;;8.27;39.36;96546.66;4937132;29;20662;-68
2022/03/20 07:17:38;;;;;;;33.75;22.50;;;;;;;8.19;39.51;96528.56;4936944;29;20024;-68
2022/03/20 07:20:09;;;;;;;31.88;22.35;;;;;;;8.39;39.13;96552.59;4935722;29;20145;-68
2022/03/20 07:22:35;;;;;;;31.07;22.23;;;;;;;8.36;38.74;96533.72;4935658;29;20027;-68
2022/03/20 07:29:29;;;;;;;33.58;22.48;;;;;;;8.41;38.41;96525.84;4935544;29;20469;-69
2022/03/20 07:30:30;;;;;;;30.33;22.95;;;;;;;8.89;37.92;96571.72;4935553;29;20662;-68
2022/03/20 07:32:55;;;;;;;36.58;23.25;;;;;;;8.42;38.53;96503.56;4937210;29;20102;-68
2022/03/20 07:35:21;;;;;;;30.42;22.27;;;;;;;8.66;37.92;96535.81;4920247;29;20465;-70
2022/03/20 07:37:46;;;;;;;31.08;22.70;;;;;;;8.83;38.06;96541.72;4936090;29;20024;-70
2022/03/20 07:40:12;;;;;;;31.60;22.23;;;;;;;8.93;38.11;96559.53;4937108;29;20083;-71
2022/03/20 07:42:38;;;;;;;35.47;23.77;;;;;;;8.99;37.74;96599.09;4937608;29;20441;-68
2022/03/20 07:45:04;;;;;;;31.25;21.15;;;;;;;8.83;37.47;96578.88;4935556;29;20055;-70
2022/03/20 07:47:29;;;;;;;31.98;21.83;;;;;;;8.94;37.79;96577.06;4936805;29;20036;-70
2022/03/20 07:49:55;;;;;;;28.45;21.83;;;;;;;9.14;37.36;96563.88;4936490;29;20019;-70
2022/03/20 07:52:20;;;;;;;27.95;21.30;;;;;;;9.19;37.29;96555.13;4919471;29;20462;-69
2022/03/20 07:54:46;;;;;;;30.58;21.08;;;;;;;9.53;36.91;96577.56;4936771;29;20027;-69
2022/03/20 07:57:12;;;;;;;28.83;21.83;;;;;;;9.61;37.04;96585.00;4935165;29;20035;-69
2022/03/20 07:59:37;;;;;;;30.10;22.02;;;;;;;9.32;36.51;96526.25;4936352;29;20060;-70
2022/03/20 08:02:03;;;;;;;29.15;21.55;;;;;;;9.83;36.80;96605.28;4935628;29;20028;-70
2022/03/20 08:04:29;;;;;;;31.75;21.33;;;;;;;9.62;36.53;96544.13;4936568;29;20090;-69
2022/03/20 08:06:54;;;;;;;30.00;21.95;;;;;;;9.87;35.95;96553.97;4936408;29;20398;-68
2022/03/20 08:09:19;;;;;;;30.33;23.10;;;;;;;10.00;36.39;96570.47;4919031;29;20544;-68
2022/03/20 08:11:45;;;;;;;30.98;22.52;;;;;;;9.74;36.87;96565.13;4936190;29;20580;-68
2022/03/20 08:14:10;;;;;;;29.25;21.88;;;;;;;10.14;37.09;96568.88;4936718;29;20032;-67
2022/03/20 08:16:38;;;;;;;29.55;23.10;;;;;;;10.40;36.11;96589.13;4935857;29;20067;-68
2022/03/20 08:19:05;;;;;;;28.52;22.05;;;;;;;10.60;35.79;96587.53;4936116;29;20027;-69
2022/03/20 08:21:33;;;;;;;31.33;21.33;;;;;;;10.75;35.52;96608.78;4935936;29;20054;-68
2022/03/20 08:24:02;;;;;;;27.92;22.38;;;;;;;10.74;34.05;96615.16;4936120;29;20100;-68
2022/03/20 08:26:31;;;;;;;28.85;20.35;;;;;;;10.98;34.53;96579.97;4936002;29;20034;-69
2022/03/20 08:28:59;;;;;;;31.77;22.08;;;;;;;10.65;34.20;96515.66;4935875;29;20028;-69
2022/03/20 08:31:28;;;;;;;28.45;20.83;;;;;;;10.33;34.52;96457.47;4935267;29;20047;-69
2022/03/20 08:33:54;;;;;;;27.85;21.50;;;;;;;10.72;34.01;96560.63;4918800;29;20031;-70
2022/03/20 08:36:20;;;;;;;28.73;22.27;;;;;;;10.52;33.79;96474.44;4936019;29;20401;-69
2022/03/20 08:38:46;;;;;;;25.15;20.50;;;;;;;10.86;33.70;96511.88;4935646;29;20030;-70
2022/03/20 08:41:12;;;;;;;28.70;20.90;;;;;;;11.23;33.80;96571.09;4918524;29;20054;-69
2022/03/20 08:43:38;;;;;;;25.75;20.20;;;;;;;11.32;33.63;96556.94;4934563;29;20027;-70
2022/03/20 08:46:03;;;;;;;25.75;21.50;;;;;;;10.88;33.65;96559.50;4917868;29;20057;-66
2022/03/20 08:48:28;;;;;;;28.33;21.25;;;;;;;11.51;33.44;96613.06;4935427;29;20028;-67
2022/03/20 08:50:54;;;;;;;26.10;20.67;;;;;;;11.47;33.80;96579.28;4918396;29;20019;-68
2022/03/20 08:53:20;;;;;;;29.02;20.92;;;;;;;11.78;33.03;96602.03;4935649;29;20035;-70
2022/03/20 08:55:47;;;;;;;26.30;20.25;;;;;;;11.90;32.79;96599.84;4934124;29;20032;-65
2022/03/20 08:58:12;;;;;;;27.33;20.15;;;;;;;11.73;33.06;96562.06;4935519;29;20051;-68
2022/03/20 09:00:38;;;;;;;24.00;20.40;;;;;;;11.79;32.60;96555.63;4934385;29;20670;-68
2022/03/20 09:03:03;;;;;;;28.02;21.02;;;;;;;12.22;32.74;96602.00;4935475;29;20032;-64
2022/03/20 09:05:29;;;;;;;31.50;22.27;;;;;;;12.15;32.94;96574.06;4935348;29;20035;-64
2022/03/20 09:07:57;;;;;;;26.23;20.67;;;;;;;12.14;32.67;96548.47;4935410;29;20028;-67
2022/03/20 09:10:24;;;;;;;25.20;20.75;;;;;;;12.26;32.69;96575.59;4918023;29;20047;-66
2022/03/20 09:12:49;;;;;;;25.52;20.50;;;;;;;12.16;32.00;96565.00;4935472;29;20031;-69
2022/03/20 09:15:16;;;;;;;30.23;21.58;;;;;;;12.30;31.99;96581.16;4918192;29;20034;-68
2022/03/20 09:20:30;;;;;;;28.83;22.05;;;;;;;12.42;31.76;96585.06;4934879;29;20050;-67
2022/03/20 09:22:56;;;;;;;22.92;20.40;;;;;;;12.44;32.13;96577.56;4917753;29;20036;-69
2022/03/20 09:25:22;;;;;;;29.23;20.65;;;;;;;12.81;31.51;96605.53;4934962;29;20028;-68
2022/03/20 09:27:48;;;;;;;25.45;20.52;;;;;;;12.24;31.91;96508.38;4934736;29;20032;-68
2022/03/20 09:30:18;;;;;;;22.45;19.55;;;;;;;13.04;31.75;96597.81;4934377;29;20075;-70
2022/03/20 09:32:44;;;;;;;29.38;21.70;;;;;;;13.32;31.70;96620.25;4934850;29;20031;-69
2022/03/20 09:35:10;;;;;;;26.80;21.88;;;;;;;13.10;31.51;96576.09;4934668;29;20102;-69
2022/03/20 09:37:35;;;;;;;24.70;21.02;;;;;;;13.30;31.18;96596.47;4934690;29;20038;-68
2022/03/20 09:40:03;;;;;;;26.15;21.55;;;;;;;13.23;31.27;96599.50;4934585;29;20102;-69
2022/03/20 09:42:28;;;;;;;26.17;20.85;;;;;;;13.53;30.96;96587.66;4934454;29;20082;-69
2022/03/20 09:44:54;;;;;;;28.17;20.45;;;;;;;13.32;30.48;96574.84;4934585;29;20115;-69
2022/03/20 09:47:23;;;;;;;24.55;19.70;;;;;;;13.81;30.38;96603.84;4934586;29;20374;-69
2022/03/20 09:49:49;;;;;;;30.25;20.15;;;;;;;13.69;30.14;96590.91;4934363;29;20082;-68
2022/03/20 09:52:17;;;;;;;27.27;20.88;;;;;;;13.80;30.47;96583.56;4933296;29;20028;-70
2022/03/20 09:54:42;;;;;;;26.27;21.60;;;;;;;13.98;30.01;96584.66;4933059;29;20118;-69
2022/03/20 09:57:09;;;;;;;26.30;19.50;;;;;;;13.10;29.87;96535.22;4917317;29;20122;-69
2022/03/20 09:59:37;;;;;;;22.85;19.77;;;;;;;13.39;30.25;96581.41;4934220;29;20016;-70
2022/03/20 10:02:11;;;;;;;24.30;20.45;;;;;;;13.70;29.43;96603.19;4935149;29;20086;-70
2022/03/20 10:05:00;;;;;;;26.17;19.77;;;;;;;13.80;28.86;96596.91;4917877;29;20107;-71
2022/03/20 10:07:28;;;;;;;26.00;20.02;;;;;;;13.96;28.86;96598.28;4906545;29;20067;-71
2022/03/20 10:10:12;;;;;;;23.52;19.63;;;;;;;13.67;28.83;96597.66;4914037;29;20037;-71
2022/03/20 10:12:44;;;;;;;24.92;19.23;;;;;;;13.83;28.74;96599.03;4915415;29;20032;-72
2022/03/20 10:15:28;;;;;;;22.35;18.67;;;;;;;13.91;29.09;96576.97;4915301;29;20084;-71
2022/03/20 10:18:09;;;;;;;23.00;18.60;;;;;;;13.31;29.46;96600.75;4898238;29;20095;-71
2022/03/20 10:20:36;;;;;;;20.02;17.92;;;;;;;13.63;28.89;96578.72;4899888;29;20519;-71
2022/03/20 10:23:03;;;;;;;24.23;18.85;;;;;;;13.87;28.17;96575.97;4934431;29;20043;-71
2022/03/20 10:25:29;;;;;;;34.00;16.63;;;;;;;13.79;27.71;96523.91;4934455;29;20023;-70
2022/03/20 10:28:00;;;;;;;19.98;16.67;;;;;;;13.83;27.71;96528.69;4932755;29;20028;-71
2022/03/20 10:30:26;;;;;;;20.05;17.38;;;;;;;14.49;27.37;96597.28;4934028;29;20028;-73
2022/03/20 10:32:51;;;;;;;19.98;17.65;;;;;;;14.42;27.40;96570.84;4917021;29;20495;-72
2022/03/20 10:35:18;;;;;;;19.10;16.88;;;;;;;14.75;26.88;96590.41;4934197;29;20111;-71
2022/03/20 10:37:43;;;;;;;20.15;17.80;;;;;;;14.59;27.16;96574.88;4933888;29;20059;-70
2022/03/20 10:40:15;;;;;;;17.27;15.52;;;;;;;15.04;27.00;96568.69;4934225;29;20031;-71
2022/03/20 10:42:41;;;;;;;18.45;16.13;;;;;;;15.11;26.46;96540.72;4934628;29;20485;-71
2022/03/20 10:45:07;;;;;;;16.95;15.18;;;;;;;14.88;25.76;96582.66;4917267;29;20063;-69
2022/03/20 10:47:33;;;;;;;18.83;15.93;;;;;;;15.12;25.09;96588.66;4932833;29;20090;-71
2022/03/20 10:50:09;;;;;;;20.80;15.77;;;;;;;15.26;25.65;96573.38;4933983;29;20515;-71
2022/03/20 10:52:36;;;;;;;19.20;15.57;;;;;;;15.04;24.90;96533.84;4932853;29;20040;-70
2022/03/20 10:55:15;;;;;;;19.50;15.98;;;;;;;15.13;25.42;96547.34;4916999;29;20121;-72
2022/03/20 10:57:41;;;;;;;16.75;14.75;;;;;;;15.60;25.48;96575.59;4932874;29;20166;-70
2022/03/20 11:00:11;;;;;;;16.73;14.98;;;;;;;15.31;25.05;96564.44;4933789;29;20437;-70
2022/03/20 11:02:39;;;;;;;16.23;14.52;;;;;;;15.16;24.51;96533.38;4933980;29;20051;-71
2022/03/20 11:05:06;;;;;;;16.38;14.48;;;;;;;15.18;24.15;96562.53;4934004;29;20067;-70
2022/03/20 11:07:31;;;;;;;14.73;13.38;;;;;;;15.24;23.20;96556.78;4931844;29;20031;-70
2022/03/20 11:09:57;;;;;;;14.75;13.18;;;;;;;15.57;23.49;96573.53;4916639;29;20094;-70
2022/03/20 11:12:34;;;;;;;16.92;15.23;;;;;;;15.92;24.08;96562.34;4932504;29;20036;-70
2022/03/20 11:15:06;;;;;;;15.55;14.05;;;;;;;15.91;24.12;96588.38;4933842;29;20102;-70
2022/03/20 11:17:52;;;;;;;15.68;13.73;;;;;;;16.00;23.39;96583.91;4933823;29;20074;-71
2022/03/20 11:20:18;;;;;;;15.50;14.00;;;;;;;16.28;23.43;96578.44;4936733;29;20554;-68
2022/03/20 11:22:51;;;;;;;16.50;13.95;;;;;;;16.17;23.84;96585.13;4936577;29;20035;-69
2022/03/20 11:25:21;;;;;;;18.35;15.38;;;;;;;16.07;24.11;96589.66;4919866;29;20132;-68
2022/03/20 11:27:53;;;;;;;17.35;15.50;;;;;;;15.73;23.68;96543.72;4935762;29;20076;-68
2022/03/20 11:30:22;;;;;;;20.00;15.60;;;;;;;15.41;24.56;96563.44;4935606;29;20030;-69
2022/03/20 11:32:48;;;;;;;19.02;15.23;;;;;;;15.69;24.19;96558.84;4937017;29;20107;-68
2022/03/20 11:35:14;;;;;;;17.20;15.27;;;;;;;16.25;23.82;96585.19;4936682;29;20066;-67
2022/03/20 11:37:50;;;;;;;16.10;14.52;;;;;;;16.07;23.97;96552.06;4919736;29;20484;-70
2022/03/20 11:40:20;;;;;;;16.52;14.77;;;;;;;15.71;24.56;96580.78;4919455;29;20046;-69
2022/03/20 11:42:47;;;;;;;17.30;15.20;;;;;;;15.51;24.43;96571.28;4936653;29;20024;-68
2022/03/20 11:45:18;;;;;;;16.58;15.07;;;;;;;15.48;24.47;96531.63;4936664;29;20031;-69
2022/03/20 11:47:49;;;;;;;15.60;14.05;;;;;;;15.86;23.87;96575.09;4936584;29;20039;-69
2022/03/20 11:50:40;;;;;;;16.42;14.82;;;;;;;15.69;24.13;96564.19;4935121;29;20031;-70
2022/03/20 11:53:06;;;;;;;16.17;14.48;;;;;;;16.01;23.95;96565.91;4935478;29;20042;-68
2022/03/20 11:55:47;;;;;;;18.35;14.50;;;;;;;16.31;24.08;96567.06;4936601;29;20031;-68